sensor_id;sensor_type;location;lat;lon;timestamp;pressure;altitude;pressure_sealevel;temperature;humidity
75196;BME280;63773;42.282;22.782;2022-09-25T00:00:50;95222.31;;;17.49;47.17
75196;BME280;63773;42.282;22.782;2022-09-25T00:03:16;95217.94;;;17.48;47.13
75196;BME280;63773;42.282;22.782;2022-09-25T00:05:43;95217.94;;;17.48;47.10
75196;BME280;63773;42.282;22.782;2022-09-25T00:08:10;95209.16;;;17.46;46.95
75196;BME280;63773;42.282;22.782;2022-09-25T00:10:49;95205.94;;;17.44;46.76
75196;BME280;63773;42.282;22.782;2022-09-25T00:13:16;95208.22;;;17.42;47.08
75196;BME280;63773;42.282;22.782;2022-09-25T00:15:50;95217.78;;;17.45;46.86
75196;BME280;63773;42.282;22.782;2022-09-25T00:18:17;95220.91;;;17.43;47.15
75196;BME280;63773;42.282;22.782;2022-09-25T00:21:03;95203.84;;;17.41;46.95
75196;BME280;63773;42.282;22.782;2022-09-25T00:23:29;95205.19;;;17.35;47.02
75196;BME280;63773;42.282;22.782;2022-09-25T00:25:55;95213.28;;;17.40;46.79
75196;BME280;63773;42.282;22.782;2022-09-25T00:28:21;95200.94;;;17.38;46.93
75196;BME280;63773;42.282;22.782;2022-09-25T00:30:46;95205.63;;;17.37;46.75
75196;BME280;63773;42.282;22.782;2022-09-25T00:33:12;95204.81;;;17.37;46.97
75196;BME280;63773;42.282;22.782;2022-09-25T00:35:37;95207.13;;;17.35;46.81
75196;BME280;63773;42.282;22.782;2022-09-25T00:38:02;95210.72;;;17.35;46.79
75196;BME280;63773;42.282;22.782;2022-09-25T00:40:28;95211.84;;;17.34;46.94
75196;BME280;63773;42.282;22.782;2022-09-25T00:42:53;95191.56;;;17.30;46.91
75196;BME280;63773;42.282;22.782;2022-09-25T00:45:19;95187.97;;;17.29;46.98
75196;BME280;63773;42.282;22.782;2022-09-25T00:48:04;95193.97;;;17.31;46.90
75196;BME280;63773;42.282;22.782;2022-09-25T00:50:33;95199.91;;;17.21;46.87
75196;BME280;63773;42.282;22.782;2022-09-25T00:53:12;95201.19;;;17.24;47.06
75196;BME280;63773;42.282;22.782;2022-09-25T00:55:39;95207.19;;;17.26;46.81
75196;BME280;63773;42.282;22.782;2022-09-25T00:58:07;95186.25;;;17.16;46.80
75196;BME280;63773;42.282;22.782;2022-09-25T01:00:33;95203.59;;;17.25;46.58
75196;BME280;63773;42.282;22.782;2022-09-25T01:02:59;95198.06;;;17.25;46.74
75196;BME280;63773;42.282;22.782;2022-09-25T01:05:31;95185.06;;;17.26;46.85
75196;BME280;63773;42.282;22.782;2022-09-25T01:07:59;95190.13;;;17.24;46.58
75196;BME280;63773;42.282;22.782;2022-09-25T01:10:26;95188.03;;;17.21;46.81
75196;BME280;63773;42.282;22.782;2022-09-25T01:12:53;95184.09;;;17.22;46.83
75196;BME280;63773;42.282;22.782;2022-09-25T01:15:26;95188.84;;;17.21;46.64
75196;BME280;63773;42.282;22.782;2022-09-25T01:23:54;95189.00;;;17.16;46.78
75196;BME280;63773;42.282;22.782;2022-09-25T01:29:21;95184.16;;;17.13;46.64
75196;BME280;63773;42.282;22.782;2022-09-25T01:40:08;95190.69;;;17.09;46.79
75196;BME280;63773;42.282;22.782;2022-09-25T01:42:42;95185.16;;;17.09;46.81
75196;BME280;63773;42.282;22.782;2022-09-25T01:45:16;95189.88;;;17.08;46.67
75196;BME280;63773;42.282;22.782;2022-09-25T01:47:46;95189.06;;;17.08;46.59
75196;BME280;63773;42.282;22.782;2022-09-25T01:50:18;95199.34;;;17.07;46.51
75196;BME280;63773;42.282;22.782;2022-09-25T01:52:50;95202.41;;;17.06;46.75
75196;BME280;63773;42.282;22.782;2022-09-25T01:55:29;95198.03;;;17.05;46.63
75196;BME280;63773;42.282;22.782;2022-09-25T01:58:03;95198.38;;;17.03;46.62
75196;BME280;63773;42.282;22.782;2022-09-25T02:00:33;95196.75;;;17.02;46.75
75196;BME280;63773;42.282;22.782;2022-09-25T02:03:14;95193.19;;;17.02;46.64
75196;BME280;63773;42.282;22.782;2022-09-25T02:05:48;95186.34;;;16.99;46.79
75196;BME280;63773;42.282;22.782;2022-09-25T02:08:34;95184.41;;;17.00;46.70
75196;BME280;63773;42.282;22.782;2022-09-25T02:11:02;95177.59;;;16.97;46.50
75196;BME280;63773;42.282;22.782;2022-09-25T02:13:41;95175.63;;;16.98;46.42
75196;BME280;63773;42.282;22.782;2022-09-25T02:16:11;95177.59;;;16.97;46.42
75196;BME280;63773;42.282;22.782;2022-09-25T02:18:40;95186.22;;;16.96;46.43
75196;BME280;63773;42.282;22.782;2022-09-25T02:24:28;95181.03;;;16.94;46.50
75196;BME280;63773;42.282;22.782;2022-09-25T02:26:57;95195.19;;;16.93;46.61
75196;BME280;63773;42.282;22.782;2022-09-25T02:29:22;95201.03;;;16.91;46.66
75196;BME280;63773;42.282;22.782;2022-09-25T02:32:02;95203.78;;;16.91;46.48
75196;BME280;63773;42.282;22.782;2022-09-25T02:34:30;95189.84;;;16.88;46.42
75196;BME280;63773;42.282;22.782;2022-09-25T02:36:55;95193.75;;;16.87;46.39
75196;BME280;63773;42.282;22.782;2022-09-25T02:39:23;95191.44;;;16.89;46.53
75196;BME280;63773;42.282;22.782;2022-09-25T02:50:16;95183.34;;;16.84;46.48
75196;BME280;63773;42.282;22.782;2022-09-25T02:53:03;95186.44;;;16.82;46.46
75196;BME280;63773;42.282;22.782;2022-09-25T02:55:34;95183.22;;;16.80;46.54
75196;BME280;63773;42.282;22.782;2022-09-25T02:58:23;95188.41;;;16.82;46.29
75196;BME280;63773;42.282;22.782;2022-09-25T03:00:52;95195.88;;;16.81;46.57
75196;BME280;63773;42.282;22.782;2022-09-25T03:03:22;95196.72;;;16.82;46.29
75196;BME280;63773;42.282;22.782;2022-09-25T03:05:50;95191.50;;;16.80;46.56
75196;BME280;63773;42.282;22.782;2022-09-25T03:08:17;95190.69;;;16.80;46.32
75196;BME280;63773;42.282;22.782;2022-09-25T03:11:03;95191.03;;;16.78;46.54
75196;BME280;63773;42.282;22.782;2022-09-25T03:13:29;95180.28;;;16.77;46.34
75196;BME280;63773;42.282;22.782;2022-09-25T03:18:30;95175.13;;;16.75;46.46
75196;BME280;63773;42.282;22.782;2022-09-25T03:20:56;95183.06;;;16.77;46.23
75196;BME280;63773;42.282;22.782;2022-09-25T03:23:21;95174.63;;;16.73;46.40
75196;BME280;63773;42.282;22.782;2022-09-25T03:25:47;95175.94;;;16.76;46.35
75196;BME280;63773;42.282;22.782;2022-09-25T03:28:13;95179.34;;;16.72;46.39
75196;BME280;63773;42.282;22.782;2022-09-25T03:30:39;95177.88;;;16.75;46.26
75196;BME280;63773;42.282;22.782;2022-09-25T03:33:11;95177.88;;;16.75;46.38
75196;BME280;63773;42.282;22.782;2022-09-25T03:35:38;95171.53;;;16.74;46.25
75196;BME280;63773;42.282;22.782;2022-09-25T03:38:04;95162.00;;;16.63;46.51
75196;BME280;63773;42.282;22.782;2022-09-25T03:40:30;95171.91;;;16.64;46.38
75196;BME280;63773;42.282;22.782;2022-09-25T03:42:55;95170.75;;;16.65;46.46
75196;BME280;63773;42.282;22.782;2022-09-25T03:45:21;95182.31;;;16.67;46.48
75196;BME280;63773;42.282;22.782;2022-09-25T03:47:46;95170.09;;;16.68;46.20
75196;BME280;63773;42.282;22.782;2022-09-25T03:50:12;95179.19;;;16.69;46.23
75196;BME280;63773;42.282;22.782;2022-09-25T03:52:37;95191.06;;;16.69;46.37
75196;BME280;63773;42.282;22.782;2022-09-25T03:55:03;95172.38;;;16.66;46.40
75196;BME280;63773;42.282;22.782;2022-09-25T03:57:30;95185.22;;;16.62;46.29
75196;BME280;63773;42.282;22.782;2022-09-25T03:59:55;95188.69;;;16.59;46.43
75196;BME280;63773;42.282;22.782;2022-09-25T04:02:26;95194.22;;;16.59;46.48
75196;BME280;63773;42.282;22.782;2022-09-25T04:04:52;95161.09;;;16.42;46.39
75196;BME280;63773;42.282;22.782;2022-09-25T04:07:19;95188.19;;;16.57;46.21
75196;BME280;63773;42.282;22.782;2022-09-25T04:09:45;95196.00;;;16.55;46.28
75196;BME280;63773;42.282;22.782;2022-09-25T04:12:10;95199.56;;;16.56;46.29
75196;BME280;63773;42.282;22.782;2022-09-25T04:14:35;95198.28;;;16.53;46.56
75196;BME280;63773;42.282;22.782;2022-09-25T04:17:01;95195.00;;;16.51;46.33
75196;BME280;63773;42.282;22.782;2022-09-25T04:19:26;95188.53;;;16.47;46.40
75196;BME280;63773;42.282;22.782;2022-09-25T04:21:51;95199.88;;;16.46;46.55
75196;BME280;63773;42.282;22.782;2022-09-25T04:24:17;95193.91;;;16.44;46.49
75196;BME280;63773;42.282;22.782;2022-09-25T04:27:01;95195.03;;;16.43;46.54
75196;BME280;63773;42.282;22.782;2022-09-25T04:29:26;95200.06;;;16.41;46.54
75196;BME280;63773;42.282;22.782;2022-09-25T04:31:52;95197.31;;;16.41;46.49
75196;BME280;63773;42.282;22.782;2022-09-25T04:34:36;95196.84;;;16.39;46.53
75196;BME280;63773;42.282;22.782;2022-09-25T04:37:01;95197.97;;;16.38;46.68
75196;BME280;63773;42.282;22.782;2022-09-25T04:39:28;95198.78;;;16.38;46.59
75196;BME280;63773;42.282;22.782;2022-09-25T04:41:53;95207.41;;;16.37;46.62
75196;BME280;63773;42.282;22.782;2022-09-25T04:44:19;95205.44;;;16.37;46.60
75196;BME280;63773;42.282;22.782;2022-09-25T04:46:45;95203.03;;;16.36;46.58
75196;BME280;63773;42.282;22.782;2022-09-25T04:49:10;95204.16;;;16.35;46.49
75196;BME280;63773;42.282;22.782;2022-09-25T04:51:36;95193.91;;;16.35;46.44
75196;BME280;63773;42.282;22.782;2022-09-25T04:54:01;95198.63;;;16.35;46.60
75196;BME280;63773;42.282;22.782;2022-09-25T04:56:26;95192.78;;;16.36;46.60
75196;BME280;63773;42.282;22.782;2022-09-25T04:58:52;95201.88;;;16.37;46.56
75196;BME280;63773;42.282;22.782;2022-09-25T05:01:19;95201.53;;;16.38;46.62
75196;BME280;63773;42.282;22.782;2022-09-25T05:03:51;95204.78;;;16.40;46.24
75196;BME280;63773;42.282;22.782;2022-09-25T05:06:18;95210.16;;;16.45;46.13
75196;BME280;63773;42.282;22.782;2022-09-25T05:08:47;95206.38;;;16.50;45.99
75196;BME280;63773;42.282;22.782;2022-09-25T05:11:14;95203.47;;;16.55;46.58
75196;BME280;63773;42.282;22.782;2022-09-25T05:13:40;95188.34;;;16.61;47.05
75196;BME280;63773;42.282;22.782;2022-09-25T05:16:08;95191.72;;;16.66;46.94
75196;BME280;63773;42.282;22.782;2022-09-25T05:18:33;95193.00;;;16.69;46.76
75196;BME280;63773;42.282;22.782;2022-09-25T05:21:02;95194.28;;;16.71;46.41
75196;BME280;63773;42.282;22.782;2022-09-25T05:23:28;95189.28;;;16.73;46.27
75196;BME280;63773;42.282;22.782;2022-09-25T05:25:55;95189.75;;;16.76;46.31
75196;BME280;63773;42.282;22.782;2022-09-25T05:28:22;95186.63;;;16.77;46.13
75196;BME280;63773;42.282;22.782;2022-09-25T05:30:49;95196.56;;;16.78;46.09
75196;BME280;63773;42.282;22.782;2022-09-25T05:33:15;95187.59;;;16.81;46.04
75196;BME280;63773;42.282;22.782;2022-09-25T05:35:40;95175.38;;;16.82;45.98
75196;BME280;63773;42.282;22.782;2022-09-25T05:38:06;95191.91;;;16.91;45.75
75196;BME280;63773;42.282;22.782;2022-09-25T05:40:33;95184.13;;;16.93;45.82
75196;BME280;63773;42.282;22.782;2022-09-25T05:42:58;95203.13;;;16.94;45.66
75196;BME280;63773;42.282;22.782;2022-09-25T05:45:24;95201.34;;;16.98;45.50
75196;BME280;63773;42.282;22.782;2022-09-25T05:48:06;95208.63;;;17.03;45.41
75196;BME280;63773;42.282;22.782;2022-09-25T05:50:33;95198.03;;;17.05;45.32
75196;BME280;63773;42.282;22.782;2022-09-25T05:53:01;95204.88;;;17.07;45.43
75196;BME280;63773;42.282;22.782;2022-09-25T05:55:27;95201.41;;;17.10;45.39
75196;BME280;63773;42.282;22.782;2022-09-25T05:57:53;95200.28;;;17.11;45.37
75196;BME280;63773;42.282;22.782;2022-09-25T06:00:18;95205.81;;;17.11;45.33
75196;BME280;63773;42.282;22.782;2022-09-25T06:02:44;95204.31;;;17.14;45.04
75196;BME280;63773;42.282;22.782;2022-09-25T06:05:09;95191.78;;;17.16;45.04
75196;BME280;63773;42.282;22.782;2022-09-25T06:07:36;95201.84;;;17.21;45.16
75196;BME280;63773;42.282;22.782;2022-09-25T06:10:02;95198.06;;;17.25;44.97
75196;BME280;63773;42.282;22.782;2022-09-25T06:12:28;95205.38;;;17.30;44.98
75196;BME280;63773;42.282;22.782;2022-09-25T06:14:54;95198.00;;;17.34;44.87
75196;BME280;63773;42.282;22.782;2022-09-25T06:17:19;95198.84;;;17.35;44.67
75196;BME280;63773;42.282;22.782;2022-09-25T06:19:45;95186.63;;;17.36;44.74
75196;BME280;63773;42.282;22.782;2022-09-25T06:22:11;95197.00;;;17.39;44.62
75196;BME280;63773;42.282;22.782;2022-09-25T06:24:36;95207.53;;;17.45;44.52
75196;BME280;63773;42.282;22.782;2022-09-25T06:27:02;95202.00;;;17.45;44.57
75196;BME280;63773;42.282;22.782;2022-09-25T06:29:27;95208.00;;;17.47;44.44
75196;BME280;63773;42.282;22.782;2022-09-25T06:31:52;95198.09;;;17.46;44.55
75196;BME280;63773;42.282;22.782;2022-09-25T06:34:18;95201.00;;;17.50;44.48
75196;BME280;63773;42.282;22.782;2022-09-25T06:36:43;95196.25;;;17.50;44.53
75196;BME280;63773;42.282;22.782;2022-09-25T06:39:09;95202.63;;;17.51;44.31
75196;BME280;63773;42.282;22.782;2022-09-25T06:41:35;95201.66;;;17.55;44.36
75196;BME280;63773;42.282;22.782;2022-09-25T06:44:01;95202.13;;;17.57;44.12
75196;BME280;63773;42.282;22.782;2022-09-25T06:46:26;95205.03;;;17.61;44.25
75196;BME280;63773;42.282;22.782;2022-09-25T06:48:53;95206.09;;;17.68;44.35
75196;BME280;63773;42.282;22.782;2022-09-25T06:51:24;95194.16;;;17.76;44.12
75196;BME280;63773;42.282;22.782;2022-09-25T06:53:53;95192.66;;;17.79;43.93
75196;BME280;63773;42.282;22.782;2022-09-25T06:56:19;95198.56;;;17.89;43.73
75196;BME280;63773;42.282;22.782;2022-09-25T06:58:44;95194.81;;;17.94;43.69
75196;BME280;63773;42.282;22.782;2022-09-25T07:01:10;95186.16;;;17.96;43.57
75196;BME280;63773;42.282;22.782;2022-09-25T07:03:37;95195.41;;;18.00;43.53
75196;BME280;63773;42.282;22.782;2022-09-25T07:06:11;95206.63;;;18.03;43.55
75196;BME280;63773;42.282;22.782;2022-09-25T07:08:38;95208.22;;;18.04;43.49
75196;BME280;63773;42.282;22.782;2022-09-25T07:11:04;95212.63;;;18.05;43.43
75196;BME280;63773;42.282;22.782;2022-09-25T07:13:32;95225.19;;;18.03;43.58
75196;BME280;63773;42.282;22.782;2022-09-25T07:15:59;95221.94;;;18.01;43.51
75196;BME280;63773;42.282;22.782;2022-09-25T07:18:26;95224.22;;;17.99;43.55
75196;BME280;63773;42.282;22.782;2022-09-25T07:20:52;95229.31;;;17.97;43.60
75196;BME280;63773;42.282;22.782;2022-09-25T07:23:19;95230.94;;;17.98;43.64
75196;BME280;63773;42.282;22.782;2022-09-25T07:25:45;95242.00;;;17.98;43.94
75196;BME280;63773;42.282;22.782;2022-09-25T07:28:12;95228.16;;;17.98;43.78
75196;BME280;63773;42.282;22.782;2022-09-25T07:30:38;95237.22;;;17.86;43.97
75196;BME280;63773;42.282;22.782;2022-09-25T07:33:04;95235.50;;;17.94;43.60
75196;BME280;63773;42.282;22.782;2022-09-25T07:35:30;95233.88;;;17.93;42.84
75196;BME280;63773;42.282;22.782;2022-09-25T07:37:56;95220.25;;;17.87;42.69
75196;BME280;63773;42.282;22.782;2022-09-25T07:40:22;95215.41;;;17.84;42.48
75196;BME280;63773;42.282;22.782;2022-09-25T07:42:49;95206.91;;;17.69;41.86
75196;BME280;63773;42.282;22.782;2022-09-25T07:45:14;95198.97;;;17.38;42.49
75196;BME280;63773;42.282;22.782;2022-09-25T07:47:39;95199.97;;;17.33;42.53
75196;BME280;63773;42.282;22.782;2022-09-25T07:50:05;95195.53;;;17.41;42.64
75196;BME280;63773;42.282;22.782;2022-09-25T07:52:31;95187.97;;;17.50;42.44
75196;BME280;63773;42.282;22.782;2022-09-25T07:54:56;95177.25;;;17.49;42.14
75196;BME280;63773;42.282;22.782;2022-09-25T07:57:22;95179.06;;;17.45;42.17
75196;BME280;63773;42.282;22.782;2022-09-25T07:59:48;95180.94;;;17.53;41.97
75196;BME280;63773;42.282;22.782;2022-09-25T08:02:13;95154.50;;;17.43;41.85
75196;BME280;63773;42.282;22.782;2022-09-25T08:04:39;95180.94;;;17.53;42.19
75196;BME280;63773;42.282;22.782;2022-09-25T08:07:04;95188.47;;;17.52;41.92
75196;BME280;63773;42.282;22.782;2022-09-25T08:09:30;95188.47;;;17.52;41.91
75196;BME280;63773;42.282;22.782;2022-09-25T08:11:55;95194.38;;;17.42;41.88
75196;BME280;63773;42.282;22.782;2022-09-25T08:14:21;95174.81;;;17.47;42.05
75196;BME280;63773;42.282;22.782;2022-09-25T08:16:47;95169.78;;;17.49;41.70
75196;BME280;63773;42.282;22.782;2022-09-25T08:19:13;95175.25;;;17.58;41.60
75196;BME280;63773;42.282;22.782;2022-09-25T08:21:42;95170.66;;;17.62;41.66
75196;BME280;63773;42.282;22.782;2022-09-25T08:24:08;95173.09;;;17.63;41.53
75196;BME280;63773;42.282;22.782;2022-09-25T08:26:34;95145.53;;;17.46;41.63
75196;BME280;63773;42.282;22.782;2022-09-25T08:29:01;95147.38;;;17.63;41.54
75196;BME280;63773;42.282;22.782;2022-09-25T08:31:27;95134.59;;;17.58;41.68
75196;BME280;63773;42.282;22.782;2022-09-25T08:33:52;95140.50;;;17.69;41.54
75196;BME280;63773;42.282;22.782;2022-09-25T08:36:19;95138.47;;;17.57;41.56
75196;BME280;63773;42.282;22.782;2022-09-25T08:38:45;95143.47;;;17.64;41.22
75196;BME280;63773;42.282;22.782;2022-09-25T08:41:22;95148.41;;;17.58;41.38
75196;BME280;63773;42.282;22.782;2022-09-25T08:46:23;95144.16;;;17.61;40.55
75196;BME280;63773;42.282;22.782;2022-09-25T08:49:08;95139.22;;;17.66;40.96
75196;BME280;63773;42.282;22.782;2022-09-25T08:51:38;95148.72;;;17.57;40.99
75196;BME280;63773;42.282;22.782;2022-09-25T08:54:08;95143.03;;;17.53;40.95
75196;BME280;63773;42.282;22.782;2022-09-25T08:56:36;95151.78;;;17.64;40.75
75196;BME280;63773;42.282;22.782;2022-09-25T09:01:49;95144.69;;;17.75;40.54
75196;BME280;63773;42.282;22.782;2022-09-25T09:04:37;95126.44;;;17.74;39.94
75196;BME280;63773;42.282;22.782;2022-09-25T09:07:28;95128.66;;;17.80;40.34
75196;BME280;63773;42.282;22.782;2022-09-25T09:12:42;95118.31;;;17.89;40.13
75196;BME280;63773;42.282;22.782;2022-09-25T09:15:30;95118.22;;;17.98;39.73
75196;BME280;63773;42.282;22.782;2022-09-25T09:18:01;95102.91;;;18.01;39.98
75196;BME280;63773;42.282;22.782;2022-09-25T09:20:41;95107.41;;;18.05;39.64
75196;BME280;63773;42.282;22.782;2022-09-25T09:23:10;95103.28;;;18.11;39.52
75196;BME280;63773;42.282;22.782;2022-09-25T09:37:02;95097.59;;;18.65;38.86
75196;BME280;63773;42.282;22.782;2022-09-25T09:39:44;95088.66;;;18.71;38.46
75196;BME280;63773;42.282;22.782;2022-09-25T09:42:17;95090.06;;;18.77;38.36
75196;BME280;63773;42.282;22.782;2022-09-25T09:47:42;95081.53;;;18.82;38.47
75196;BME280;63773;42.282;22.782;2022-09-25T09:52:48;95088.34;;;18.85;39.57
75196;BME280;63773;42.282;22.782;2022-09-25T09:55:25;95085.00;;;18.79;39.45
75196;BME280;63773;42.282;22.782;2022-09-25T09:57:56;95080.16;;;18.64;39.10
75196;BME280;63773;42.282;22.782;2022-09-25T10:00:23;95077.72;;;18.63;39.10
75196;BME280;63773;42.282;22.782;2022-09-25T10:02:57;95081.06;;;18.68;39.95
75196;BME280;63773;42.282;22.782;2022-09-25T10:05:26;95072.97;;;18.87;40.63
75196;BME280;63773;42.282;22.782;2022-09-25T10:07:54;95080.91;;;19.01;38.52
75196;BME280;63773;42.282;22.782;2022-09-25T10:10:24;95073.53;;;18.93;36.41
75196;BME280;63773;42.282;22.782;2022-09-25T10:12:53;95072.47;;;18.97;39.90
75196;BME280;63773;42.282;22.782;2022-09-25T10:15:30;95063.72;;;18.95;41.15
75196;BME280;63773;42.282;22.782;2022-09-25T10:17:59;95069.38;;;18.99;40.04
75196;BME280;63773;42.282;22.782;2022-09-25T10:20:30;95061.31;;;18.82;40.08
75196;BME280;63773;42.282;22.782;2022-09-25T10:22:59;95063.72;;;18.71;39.94
75196;BME280;63773;42.282;22.782;2022-09-25T10:25:36;95058.44;;;18.66;40.09
75196;BME280;63773;42.282;22.782;2022-09-25T10:28:31;95065.13;;;18.65;39.61
75196;BME280;63773;42.282;22.782;2022-09-25T10:30:59;95051.16;;;18.62;39.59
75196;BME280;63773;42.282;22.782;2022-09-25T10:33:28;95034.41;;;18.58;39.29
75196;BME280;63773;42.282;22.782;2022-09-25T10:35:54;95044.47;;;18.63;39.59
75196;BME280;63773;42.282;22.782;2022-09-25T10:44:00;95037.75;;;18.64;39.21
75196;BME280;63773;42.282;22.782;2022-09-25T10:49:25;95035.81;;;18.64;38.98
75196;BME280;63773;42.282;22.782;2022-09-25T10:52:12;95032.66;;;18.66;39.09
75196;BME280;63773;42.282;22.782;2022-09-25T10:54:38;95024.03;;;18.67;39.06
75196;BME280;63773;42.282;22.782;2022-09-25T11:00:01;95024.13;;;18.71;39.01
75196;BME280;63773;42.282;22.782;2022-09-25T11:02:41;95021.00;;;18.72;38.85
75196;BME280;63773;42.282;22.782;2022-09-25T11:05:35;95018.59;;;18.71;38.90
75196;BME280;63773;42.282;22.782;2022-09-25T11:08:05;95010.72;;;18.73;39.11
75196;BME280;63773;42.282;22.782;2022-09-25T11:10:36;95009.66;;;18.77;38.95
75196;BME280;63773;42.282;22.782;2022-09-25T11:13:29;95005.97;;;18.85;38.41
75196;BME280;63773;42.282;22.782;2022-09-25T11:16:03;95003.09;;;18.82;38.64
75196;BME280;63773;42.282;22.782;2022-09-25T11:18:41;94993.97;;;18.81;38.45
75196;BME280;63773;42.282;22.782;2022-09-25T11:21:37;94993.59;;;18.83;38.08
75196;BME280;63773;42.282;22.782;2022-09-25T11:27:58;94994.16;;;18.88;38.03
75196;BME280;63773;42.282;22.782;2022-09-25T11:30:12;94979.41;;;18.84;37.99
75196;BME280;63773;42.282;22.782;2022-09-25T11:32:49;94997.50;;;18.94;38.35
75196;BME280;63773;42.282;22.782;2022-09-25T11:35:54;94991.81;;;19.02;37.54
75196;BME280;63773;42.282;22.782;2022-09-25T11:38:47;94976.00;;;19.03;37.49
75196;BME280;63773;42.282;22.782;2022-09-25T11:44:24;94975.00;;;19.23;36.98
75196;BME280;63773;42.282;22.782;2022-09-25T11:49:53;94948.78;;;19.21;36.19
75196;BME280;63773;42.282;22.782;2022-09-25T12:00:47;94952.25;;;19.45;35.84
75196;BME280;63773;42.282;22.782;2022-09-25T12:03:46;94951.66;;;19.52;35.67
75196;BME280;63773;42.282;22.782;2022-09-25T12:06:18;94951.50;;;19.61;35.68
75196;BME280;63773;42.282;22.782;2022-09-25T12:22:56;94921.94;;;19.84;34.99
75196;BME280;63773;42.282;22.782;2022-09-25T12:31:00;94920.16;;;19.91;34.68
75196;BME280;63773;42.282;22.782;2022-09-25T12:36:14;94904.84;;;19.97;34.47
75196;BME280;63773;42.282;22.782;2022-09-25T12:38:46;94906.91;;;20.00;34.56
75196;BME280;63773;42.282;22.782;2022-09-25T12:41:20;94914.13;;;20.05;34.45
75196;BME280;63773;42.282;22.782;2022-09-25T12:47:44;94905.34;;;20.18;34.33
75196;BME280;63773;42.282;22.782;2022-09-25T12:49:57;94905.63;;;20.29;34.34
75196;BME280;63773;42.282;22.782;2022-09-25T12:52:33;94887.13;;;20.37;34.42
75196;BME280;63773;42.282;22.782;2022-09-25T12:55:11;94886.56;;;20.47;34.21
75196;BME280;63773;42.282;22.782;2022-09-25T12:58:18;94874.72;;;20.50;34.01
75196;BME280;63773;42.282;22.782;2022-09-25T13:00:55;94868.53;;;20.56;33.88
75196;BME280;63773;42.282;22.782;2022-09-25T13:06:08;94866.84;;;21.09;42.21
75196;BME280;63773;42.282;22.782;2022-09-25T13:08:44;94858.94;;;21.31;42.06
75196;BME280;63773;42.282;22.782;2022-09-25T13:11:36;94845.28;;;21.45;39.74
75196;BME280;63773;42.282;22.782;2022-09-25T13:14:16;94834.06;;;21.41;41.79
75196;BME280;63773;42.282;22.782;2022-09-25T13:16:44;94836.34;;;21.58;39.90
75196;BME280;63773;42.282;22.782;2022-09-25T13:19:27;94836.28;;;21.77;39.47
75196;BME280;63773;42.282;22.782;2022-09-25T13:22:05;94834.38;;;21.81;40.13
75196;BME280;63773;42.282;22.782;2022-09-25T13:24:43;94833.50;;;21.77;39.06
75196;BME280;63773;42.282;22.782;2022-09-25T13:27:16;94827.84;;;21.97;39.10
75196;BME280;63773;42.282;22.782;2022-09-25T13:30:31;94821.59;;;21.80;38.24
75196;BME280;63773;42.282;22.782;2022-09-25T13:32:47;94819.22;;;22.05;37.24
75196;BME280;63773;42.282;22.782;2022-09-25T13:35:16;94834.44;;;22.11;37.63
75196;BME280;63773;42.282;22.782;2022-09-25T13:37:42;94826.31;;;22.25;37.11
75196;BME280;63773;42.282;22.782;2022-09-25T13:40:19;94819.75;;;22.40;35.27
75196;BME280;63773;42.282;22.782;2022-09-25T13:43:24;94823.50;;;22.52;33.93
75196;BME280;63773;42.282;22.782;2022-09-25T13:48:42;94810.88;;;22.91;31.62
75196;BME280;63773;42.282;22.782;2022-09-25T14:01:37;94805.31;;;23.31;31.99
75196;BME280;63773;42.282;22.782;2022-09-25T14:04:09;94802.34;;;23.50;32.10
75196;BME280;63773;42.282;22.782;2022-09-25T14:06:36;94806.63;;;23.41;32.04
75196;BME280;63773;42.282;22.782;2022-09-25T14:09:23;94795.78;;;23.36;32.26
75196;BME280;63773;42.282;22.782;2022-09-25T14:12:06;94801.50;;;23.46;32.75
75196;BME280;63773;42.282;22.782;2022-09-25T14:14:46;94805.16;;;23.50;31.94
75196;BME280;63773;42.282;22.782;2022-09-25T14:17:19;94798.72;;;23.46;31.91
75196;BME280;63773;42.282;22.782;2022-09-25T14:19:48;94793.97;;;23.50;32.71
75196;BME280;63773;42.282;22.782;2022-09-25T14:22:26;94797.13;;;23.93;31.30
75196;BME280;63773;42.282;22.782;2022-09-25T14:24:54;94789.25;;;24.78;30.65
75196;BME280;63773;42.282;22.782;2022-09-25T14:27:24;94785.53;;;25.88;28.46
75196;BME280;63773;42.282;22.782;2022-09-25T14:30:09;94785.78;;;26.92;27.03
75196;BME280;63773;42.282;22.782;2022-09-25T14:35:51;94788.69;;;28.88;24.59
75196;BME280;63773;42.282;22.782;2022-09-25T14:41:28;94779.84;;;29.76;23.47
75196;BME280;63773;42.282;22.782;2022-09-25T14:44:12;94791.22;;;29.69;23.00
75196;BME280;63773;42.282;22.782;2022-09-25T14:46:48;94782.25;;;29.51;23.90
75196;BME280;63773;42.282;22.782;2022-09-25T14:49:32;94781.78;;;29.56;23.54
75196;BME280;63773;42.282;22.782;2022-09-25T14:52:04;94781.50;;;29.47;23.57
75196;BME280;63773;42.282;22.782;2022-09-25T14:54:33;94778.88;;;29.33;23.58
75196;BME280;63773;42.282;22.782;2022-09-25T14:57:02;94787.47;;;28.89;24.41
75196;BME280;63773;42.282;22.782;2022-09-25T14:59:43;94779.81;;;28.52;23.42
75196;BME280;63773;42.282;22.782;2022-09-25T15:02:19;94786.16;;;28.22;24.24
75196;BME280;63773;42.282;22.782;2022-09-25T15:04:49;94795.19;;;27.96;25.96
75196;BME280;63773;42.282;22.782;2022-09-25T15:07:16;94795.47;;;28.12;25.55
75196;BME280;63773;42.282;22.782;2022-09-25T15:09:47;94792.22;;;28.17;24.97
75196;BME280;63773;42.282;22.782;2022-09-25T15:12:25;94797.56;;;28.04;24.82
75196;BME280;63773;42.282;22.782;2022-09-25T15:15:06;94791.69;;;27.81;24.04
75196;BME280;63773;42.282;22.782;2022-09-25T15:17:43;94791.94;;;27.35;24.77
75196;BME280;63773;42.282;22.782;2022-09-25T15:20:12;94776.97;;;26.83;25.74
75196;BME280;63773;42.282;22.782;2022-09-25T15:22:40;94793.16;;;26.30;25.52